Time;durP1;ratioP1;P1;durP2;ratioP2;P2;SDS_P1;SDS_P2;PMS_P1;PMS_P2;Temp;Humidity;BMP_temperature;BMP_pressure;BME280_temperature;BME280_humidity;BME280_pressure;Samples;Min_cycle;Max_cycle;Signal;HPM_P1;HPM_P2
2022/12/26 00:00:45;;;;;;;15.25;9.75;;;1.40;99.90;;;;;;4957380;28;20074;-64
2022/12/26 00:03:13;;;;;;;16.20;10.68;;;1.40;99.90;;;;;;4957375;28;20421;-62
2022/12/26 00:05:41;;;;;;;13.73;10.05;;;1.40;99.90;;;;;;4963586;28;20051;-61
2022/12/26 00:08:07;;;;;;;14.40;10.35;;;1.40;99.90;;;;;;4956102;28;20051;-64
2022/12/26 00:10:34;;;;;;;14.57;9.95;;;1.40;99.90;;;;;;4958220;28;20063;-61
2022/12/26 00:13:01;;;;;;;14.85;9.93;;;1.40;99.90;;;;;;4957307;28;20073;-62
2022/12/26 00:15:48;;;;;;;15.23;10.73;;;1.40;99.90;;;;;;4958382;28;20154;-62
2022/12/26 00:18:16;;;;;;;15.13;9.30;;;1.40;99.90;;;;;;4958138;28;20044;-62
2022/12/26 00:20:43;;;;;;;14.27;8.60;;;1.30;99.90;;;;;;4958149;28;20065;-63
2022/12/26 00:23:10;;;;;;;14.05;10.10;;;1.40;99.90;;;;;;4957469;28;20358;-62
2022/12/26 00:25:37;;;;;;;13.57;8.70;;;1.40;99.90;;;;;;4963815;28;20057;-61
2022/12/26 00:28:03;;;;;;;18.00;10.30;;;1.40;99.90;;;;;;4962811;28;20053;-62
2022/12/26 00:30:30;;;;;;;19.40;10.95;;;1.40;99.90;;;;;;4964003;28;20094;-62
2022/12/26 00:32:57;;;;;;;15.90;11.45;;;1.40;99.90;;;;;;4964161;28;20066;-64
2022/12/26 00:35:24;;;;;;;17.77;11.10;;;1.40;99.90;;;;;;4962943;28;20373;-66
2022/12/26 00:37:51;;;;;;;22.40;13.60;;;1.40;99.90;;;;;;4961497;28;20059;-63
2022/12/26 00:40:18;;;;;;;18.38;13.00;;;1.40;99.90;;;;;;4961845;28;20446;-62
2022/12/26 00:42:45;;;;;;;21.02;13.00;;;1.50;99.90;;;;;;4961436;28;20083;-61
2022/12/26 00:45:12;;;;;;;19.70;13.02;;;1.50;99.90;;;;;;4964104;28;20047;-61
2022/12/26 00:47:38;;;;;;;19.90;12.93;;;1.50;99.90;;;;;;4962035;28;20377;-61
2022/12/26 00:50:06;;;;;;;19.10;13.75;;;1.50;99.90;;;;;;4959801;28;20134;-62
2022/12/26 00:52:41;;;;;;;17.88;11.32;;;1.50;99.90;;;;;;4959237;28;21034;-67
2022/12/26 00:55:09;;;;;;;20.13;12.55;;;1.40;99.90;;;;;;4961133;28;20057;-61
2022/12/26 00:57:36;;;;;;;21.65;13.38;;;1.40;99.90;;;;;;4963704;28;20109;-61
2022/12/26 01:00:04;;;;;;;22.08;12.20;;;1.50;99.90;;;;;;4963167;28;20489;-62
2022/12/26 01:02:37;;;;;;;19.20;12.23;;;1.50;99.90;;;;;;4957324;28;20129;-62
2022/12/26 01:05:07;;;;;;;18.90;12.63;;;1.50;99.90;;;;;;4961659;28;20059;-62
2022/12/26 01:07:36;;;;;;;24.08;13.50;;;1.50;99.90;;;;;;4964089;28;20148;-61
2022/12/26 01:10:22;;;;;;;21.27;13.98;;;1.50;99.90;;;;;;4960009;28;20050;-62
2022/12/26 01:12:50;;;;;;;20.00;13.52;;;1.50;99.90;;;;;;4962979;28;20051;-61
2022/12/26 01:15:17;;;;;;;24.65;13.38;;;1.50;99.90;;;;;;4963812;28;20245;-62
2022/12/26 01:17:45;;;;;;;22.05;12.48;;;1.50;99.90;;;;;;4962539;28;20093;-62
2022/12/26 01:20:12;;;;;;;21.33;12.65;;;1.50;99.90;;;;;;4960262;28;20191;-62
2022/12/26 01:22:38;;;;;;;21.20;13.82;;;1.60;99.90;;;;;;4961176;28;20481;-64
2022/12/26 01:25:06;;;;;;;21.77;12.77;;;1.60;99.90;;;;;;4963609;28;20047;-62
2022/12/26 01:27:33;;;;;;;20.95;12.82;;;1.50;99.90;;;;;;4964254;28;20090;-61
2022/12/26 01:30:00;;;;;;;19.30;13.50;;;1.60;99.90;;;;;;4965232;28;20097;-62
2022/12/26 01:32:27;;;;;;;22.60;15.32;;;1.60;99.90;;;;;;4960372;28;20051;-62
2022/12/26 01:34:55;;;;;;;21.42;14.63;;;1.60;99.90;;;;;;4956999;28;20046;-63
2022/12/26 01:37:22;;;;;;;23.85;14.25;;;1.60;99.90;;;;;;4960263;28;20142;-63
2022/12/26 01:39:50;;;;;;;22.20;14.18;;;1.60;99.90;;;;;;4966182;28;20165;-62
2022/12/26 01:42:21;;;;;;;21.17;14.05;;;1.60;99.90;;;;;;4959747;28;20128;-61
2022/12/26 01:44:54;;;;;;;;;;;1.60;99.90;;;;;;4960345;28;20113;-63
2022/12/26 01:47:24;;;;;;;23.05;15.40;;;1.60;99.90;;;;;;4956880;28;19973;-61
2022/12/26 01:49:53;;;;;;;;;;;1.60;99.90;;;;;;4962201;28;20133;-62
2022/12/26 01:52:39;;;;;;;25.65;14.40;;;1.60;99.90;;;;;;4959358;28;19977;-61
2022/12/26 01:55:10;;;;;;;23.55;15.15;;;1.70;99.90;;;;;;4956426;28;20603;-62
2022/12/26 01:57:43;;;;;;;21.17;14.02;;;1.70;99.90;;;;;;4965274;28;20516;-62
2022/12/26 02:00:10;;;;;;;26.30;16.50;;;1.70;99.90;;;;;;4959320;28;20425;-62
2022/12/26 02:05:34;;;;;;;27.88;15.48;;;1.70;99.90;;;;;;4965819;28;20063;-61
2022/12/26 02:08:23;;;;;;;24.92;16.42;;;1.70;99.90;;;;;;4956896;28;20057;-63
2022/12/26 02:10:59;;;;;;;26.67;15.55;;;1.80;99.90;;;;;;4961648;28;20070;-62
2022/12/26 02:13:28;;;;;;;29.08;17.23;;;1.80;99.90;;;;;;4962571;28;20803;-61
2022/12/26 02:15:55;;;;;;;31.35;19.15;;;1.80;99.90;;;;;;4960501;28;20054;-61
2022/12/26 02:18:22;;;;;;;31.35;19.85;;;1.80;99.90;;;;;;4962239;28;20129;-62
2022/12/26 02:20:52;;;;;;;30.25;19.23;;;1.80;99.90;;;;;;4962826;28;20150;-61
2022/12/26 02:23:38;;;;;;;31.02;17.42;;;1.80;99.90;;;;;;4962290;28;20049;-63
2022/12/26 02:26:30;;;;;;;30.58;18.60;;;1.80;99.90;;;;;;4961494;28;20054;-62
2022/12/26 02:29:23;;;;;;;26.40;19.08;;;1.80;99.90;;;;;;4958255;28;20067;-62
2022/12/26 02:32:28;;;;;;;31.08;18.65;;;1.90;99.90;;;;;;4959704;28;20065;-61
2022/12/26 02:34:54;;;;;;;31.05;17.65;;;1.90;99.90;;;;;;4959582;28;20057;-62
2022/12/26 02:37:30;;;;;;;32.60;19.35;;;1.90;99.90;;;;;;4962401;28;20065;-64
2022/12/26 02:40:23;;;;;;;31.70;18.52;;;1.90;99.90;;;;;;4962741;28;20206;-64
2022/12/26 02:42:53;;;;;;;32.80;19.67;;;1.90;99.90;;;;;;4949598;28;20154;-62
2022/12/26 02:48:37;;;;;;;25.45;15.93;;;2.00;99.90;;;;;;4958814;28;20054;-61
2022/12/26 03:15:19;;;;;;;24.80;16.95;;;2.10;99.90;;;;;;4958344;28;20093;-62
2022/12/26 03:17:50;;;;;;;25.30;16.92;;;2.20;99.90;;;;;;4958907;28;20051;-61
2022/12/26 03:20:22;;;;;;;32.15;17.13;;;2.10;99.90;;;;;;4956782;28;20053;-62
2022/12/26 03:22:54;;;;;;;24.02;14.93;;;2.10;99.90;;;;;;4954318;28;20134;-61
2022/12/26 03:28:24;;;;;;;32.10;17.40;;;2.20;99.90;;;;;;4963554;28;20450;-62
2022/12/26 03:30:54;;;;;;;37.10;17.80;;;2.20;99.90;;;;;;4959199;28;20754;-63
2022/12/26 03:36:12;;;;;;;24.60;15.95;;;2.30;99.90;;;;;;4958917;28;20055;-62
2022/12/26 03:39:06;;;;;;;26.02;16.10;;;2.30;99.90;;;;;;4955854;28;20062;-65
2022/12/26 04:21:04;;;;;;;26.48;15.95;;;2.60;99.90;;;;;;4962058;28;20050;-64
2022/12/26 04:44:01;;;;;;;27.80;15.73;;;2.80;99.90;;;;;;4917896;29;20407;-61
2022/12/26 04:46:30;;;;;;;21.10;13.18;;;2.80;99.90;;;;;;4912623;29;20167;-62
2022/12/26 04:51:48;;;;;;;27.45;15.65;;;2.80;99.90;;;;;;4950920;28;20123;-62
2022/12/26 04:54:14;;;;;;;22.88;12.32;;;2.80;99.90;;;;;;4961547;28;20055;-62
2022/12/26 04:56:41;;;;;;;21.50;14.82;;;2.90;99.90;;;;;;4962066;28;20390;-62
2022/12/26 04:59:08;;;;;;;25.08;13.38;;;2.90;99.90;;;;;;4960182;28;20051;-64
2022/12/26 05:10:18;;;;;;;25.27;15.02;;;2.90;99.90;;;;;;4960628;28;20185;-62
2022/12/26 05:12:45;;;;;;;26.90;13.23;;;3.00;99.90;;;;;;4956018;28;20051;-64
2022/12/26 05:15:12;;;;;;;21.83;12.88;;;3.00;99.90;;;;;;4960315;28;20050;-61
2022/12/26 05:29:11;;;;;;;21.08;12.15;;;3.00;99.90;;;;;;4960979;28;20154;-61
2022/12/26 05:31:38;;;;;;;31.75;14.15;;;3.00;99.90;;;;;;4958112;28;20109;-62
2022/12/26 05:34:10;;;;;;;22.98;12.65;;;3.00;99.90;;;;;;4960128;28;20059;-64
2022/12/26 05:36:43;;;;;;;23.02;14.13;;;3.10;99.90;;;;;;4962911;28;20047;-64
2022/12/26 05:39:10;;;;;;;26.90;15.10;;;3.10;99.90;;;;;;4961994;28;20104;-62
2022/12/26 05:41:39;;;;;;;27.40;13.95;;;3.10;99.90;;;;;;4963336;28;20426;-64
2022/12/26 05:44:07;;;;;;;18.92;11.93;;;3.10;99.90;;;;;;4956703;28;20055;-62
2022/12/26 05:46:34;;;;;;;19.50;11.82;;;3.10;99.90;;;;;;4963414;28;20154;-62
2022/12/26 05:49:02;;;;;;;26.90;11.73;;;3.10;99.90;;;;;;4960130;28;20051;-63
2022/12/26 05:51:29;;;;;;;24.77;14.23;;;3.10;99.90;;;;;;4962234;28;20187;-62
2022/12/26 05:53:56;;;;;;;22.17;13.43;;;3.10;99.90;;;;;;4960658;28;20070;-64
2022/12/26 05:56:23;;;;;;;24.23;13.13;;;3.10;99.90;;;;;;4965676;28;20047;-62
2022/12/26 05:58:54;;;;;;;22.95;12.65;;;3.10;99.90;;;;;;4960538;28;20055;-61
2022/12/26 06:01:22;;;;;;;17.73;12.48;;;3.10;99.90;;;;;;4960193;28;20552;-63
2022/12/26 06:03:52;;;;;;;21.00;13.35;;;3.10;99.90;;;;;;4963727;28;20047;-61
2022/12/26 06:06:20;;;;;;;22.48;14.02;;;3.10;99.90;;;;;;4962122;28;20039;-67
2022/12/26 06:08:49;;;;;;;27.88;14.00;;;3.10;99.90;;;;;;4956112;28;20053;-61
2022/12/26 06:11:17;;;;;;;23.65;13.30;;;3.20;99.90;;;;;;4960772;28;20047;-61
2022/12/26 06:13:44;;;;;;;20.40;13.23;;;3.20;99.90;;;;;;4959904;28;20047;-63
2022/12/26 06:16:14;;;;;;;27.70;14.00;;;3.10;99.90;;;;;;4957954;28;20347;-62
2022/12/26 06:18:41;;;;;;;27.50;14.43;;;3.10;99.90;;;;;;4959076;28;20050;-62
2022/12/26 06:21:11;;;;;;;29.25;15.48;;;3.20;99.90;;;;;;4963760;28;20042;-63
2022/12/26 06:23:38;;;;;;;24.45;13.75;;;3.20;99.90;;;;;;4957869;28;20057;-61
2022/12/26 06:26:07;;;;;;;23.65;14.07;;;3.20;99.90;;;;;;4960149;28;20113;-63
2022/12/26 06:28:35;;;;;;;24.85;15.80;;;3.20;99.90;;;;;;4960308;28;20051;-64
2022/12/26 06:31:09;;;;;;;26.38;15.48;;;3.20;99.90;;;;;;4957026;28;20520;-62
2022/12/26 06:33:36;;;;;;;27.65;17.42;;;3.20;99.90;;;;;;4962451;28;20054;-64
2022/12/26 06:36:05;;;;;;;26.23;14.73;;;3.20;99.90;;;;;;4958837;28;20054;-62
2022/12/26 06:38:32;;;;;;;30.35;18.10;;;3.20;99.90;;;;;;4959969;28;20157;-61
2022/12/26 06:40:59;;;;;;;28.95;16.83;;;3.20;99.90;;;;;;4959281;28;20118;-61
2022/12/26 06:43:26;;;;;;;29.70;17.02;;;3.20;99.90;;;;;;4955076;28;20145;-61
2022/12/26 06:45:57;;;;;;;24.13;14.30;;;3.20;99.90;;;;;;4962281;28;20126;-61
2022/12/26 06:48:25;;;;;;;20.65;14.23;;;3.20;99.90;;;;;;4960530;28;20055;-62
2022/12/26 06:50:53;;;;;;;28.23;14.48;;;3.20;99.90;;;;;;4959258;28;20502;-62
2022/12/26 06:53:21;;;;;;;26.02;15.80;;;3.20;99.90;;;;;;4957325;28;20042;-61
2022/12/26 06:55:49;;;;;;;26.08;13.93;;;3.20;99.90;;;;;;4962328;28;20050;-62
2022/12/26 06:58:16;;;;;;;27.35;13.88;;;3.20;99.90;;;;;;4957657;28;20038;-62
2022/12/26 07:00:43;;;;;;;32.28;16.17;;;3.20;99.90;;;;;;4959913;28;20723;-63
2022/12/26 07:03:10;;;;;;;30.67;15.25;;;3.20;99.90;;;;;;4959805;28;20055;-61
2022/12/26 07:05:38;;;;;;;24.38;14.43;;;3.20;99.90;;;;;;4961882;28;20057;-61
2022/12/26 07:08:05;;;;;;;28.67;16.30;;;3.20;99.90;;;;;;4961001;28;20059;-61
2022/12/26 07:10:36;;;;;;;28.48;16.80;;;3.20;99.90;;;;;;4958364;28;20130;-62
2022/12/26 07:13:03;;;;;;;26.55;14.52;;;3.20;99.90;;;;;;4975276;28;20044;-65
2022/12/26 07:15:30;;;;;;;29.45;16.05;;;3.20;99.90;;;;;;4961263;28;20141;-62
2022/12/26 07:17:57;;;;;;;32.90;15.27;;;3.20;99.90;;;;;;4956622;28;20035;-62
2022/12/26 07:20:24;;;;;;;21.38;13.70;;;3.30;99.90;;;;;;4959987;28;20078;-62
2022/12/26 07:22:51;;;;;;;29.50;15.45;;;3.30;99.90;;;;;;4961594;28;20146;-62
2022/12/26 07:25:18;;;;;;;23.88;15.88;;;3.30;99.90;;;;;;4958345;28;20059;-62
2022/12/26 07:27:44;;;;;;;25.00;15.57;;;3.30;99.90;;;;;;4961467;28;20047;-63
2022/12/26 07:30:11;;;;;;;30.63;16.27;;;3.20;99.90;;;;;;4961414;28;20150;-64
2022/12/26 07:32:38;;;;;;;30.33;16.02;;;3.20;99.90;;;;;;4958752;28;20085;-64
2022/12/26 07:35:05;;;;;;;27.85;17.48;;;3.30;99.90;;;;;;4955998;28;20047;-62
2022/12/26 07:37:32;;;;;;;27.80;14.98;;;3.20;99.90;;;;;;4953975;28;20055;-62
2022/12/26 07:39:59;;;;;;;23.85;15.10;;;3.20;99.90;;;;;;4960914;28;20285;-61
2022/12/26 07:42:26;;;;;;;23.27;15.30;;;3.30;99.90;;;;;;4958272;28;20077;-62
2022/12/26 07:44:53;;;;;;;29.52;15.48;;;3.20;99.90;;;;;;4955792;28;20142;-63
2022/12/26 07:47:20;;;;;;;27.75;15.05;;;3.30;99.90;;;;;;4960431;28;20493;-62
2022/12/26 07:49:46;;;;;;;26.20;16.15;;;3.20;99.90;;;;;;4960564;28;20054;-62
2022/12/26 07:52:13;;;;;;;21.17;14.68;;;3.20;99.90;;;;;;4963242;28;20081;-63
2022/12/26 07:54:40;;;;;;;23.02;13.88;;;3.20;99.90;;;;;;4955956;28;20057;-62
2022/12/26 07:57:07;;;;;;;26.13;16.92;;;3.20;99.90;;;;;;4960052;28;20139;-62
2022/12/26 07:59:55;;;;;;;26.10;15.32;;;3.20;99.90;;;;;;4957854;28;20055;-64
2022/12/26 08:02:22;;;;;;;33.42;16.65;;;3.20;99.90;;;;;;4961843;28;20389;-61
2022/12/26 08:04:50;;;;;;;27.45;16.88;;;3.20;99.90;;;;;;4953366;28;20162;-62
2022/12/26 08:07:17;;;;;;;24.42;16.52;;;3.30;99.90;;;;;;4963814;28;20046;-62
2022/12/26 08:09:44;;;;;;;29.70;15.90;;;3.20;99.90;;;;;;4960651;28;20086;-61
2022/12/26 08:12:11;;;;;;;26.58;15.43;;;3.30;99.90;;;;;;4962277;28;20058;-62
2022/12/26 08:14:39;;;;;;;28.00;14.70;;;3.20;99.90;;;;;;4959920;28;20462;-61
2022/12/26 08:17:07;;;;;;;25.65;14.88;;;3.20;99.90;;;;;;4958755;28;20094;-62
2022/12/26 08:19:34;;;;;;;22.58;16.42;;;3.20;99.90;;;;;;4955521;28;20055;-62
2022/12/26 08:22:01;;;;;;;27.98;15.48;;;3.20;99.90;;;;;;4959415;28;20051;-62
2022/12/26 08:24:28;;;;;;;22.75;15.88;;;3.20;99.90;;;;;;4962382;28;20137;-62
2022/12/26 08:26:55;;;;;;;27.90;17.25;;;3.20;99.90;;;;;;4958350;28;20055;-62
2022/12/26 08:29:22;;;;;;;31.02;17.70;;;3.20;99.90;;;;;;4958739;28;20074;-62
2022/12/26 08:31:49;;;;;;;30.10;17.35;;;3.20;99.90;;;;;;4961282;28;20047;-61
2022/12/26 08:34:16;;;;;;;28.85;17.58;;;3.20;99.90;;;;;;4959921;28;20125;-61
2022/12/26 08:36:43;;;;;;;26.02;15.75;;;3.20;99.90;;;;;;4961902;28;20058;-62
2022/12/26 08:39:10;;;;;;;30.65;17.63;;;3.20;99.90;;;;;;4961639;28;20053;-62
2022/12/26 08:41:37;;;;;;;32.20;18.35;;;3.20;99.90;;;;;;4957249;28;20051;-62
2022/12/26 08:44:04;;;;;;;30.75;19.70;;;3.20;99.90;;;;;;4956330;28;20050;-63
2022/12/26 08:46:50;;;;;;;28.17;18.88;;;3.20;99.90;;;;;;4958299;28;20055;-62
2022/12/26 08:49:17;;;;;;;26.08;16.60;;;3.20;99.90;;;;;;4960156;28;20117;-63
2022/12/26 08:51:44;;;;;;;27.02;15.07;;;3.20;99.90;;;;;;4958033;28;20074;-62
2022/12/26 08:54:11;;;;;;;30.27;18.27;;;3.20;99.90;;;;;;4962618;28;20405;-62
2022/12/26 08:56:38;;;;;;;30.90;16.27;;;3.20;99.90;;;;;;4965961;28;20082;-62
2022/12/26 08:59:05;;;;;;;35.70;19.95;;;3.20;99.90;;;;;;4961664;28;20440;-61
2022/12/26 09:01:32;;;;;;;25.90;16.83;;;3.20;99.90;;;;;;4965712;28;20054;-62
2022/12/26 09:04:02;;;;;;;34.03;18.23;;;3.20;99.90;;;;;;4964003;28;20038;-61
2022/12/26 09:06:31;;;;;;;27.35;16.38;;;3.20;99.90;;;;;;4965390;28;20078;-61
2022/12/26 09:08:59;;;;;;;29.48;19.13;;;3.20;99.90;;;;;;4956213;28;20065;-63
2022/12/26 09:11:27;;;;;;;28.90;17.70;;;3.20;99.90;;;;;;4964691;28;20787;-63
2022/12/26 09:13:56;;;;;;;32.72;18.02;;;3.20;99.90;;;;;;4960908;28;20070;-62
2022/12/26 09:16:26;;;;;;;35.35;22.40;;;3.10;99.90;;;;;;4964473;28;20750;-62
2022/12/26 09:19:00;;;;;;;35.00;18.90;;;3.10;99.90;;;;;;4957679;28;20108;-63
2022/12/26 09:21:28;;;;;;;33.97;18.60;;;3.10;99.90;;;;;;4966086;28;20219;-63
2022/12/26 09:24:00;;;;;;;32.45;19.08;;;3.10;99.90;;;;;;4975644;28;20355;-63
2022/12/26 09:26:28;;;;;;;31.15;19.40;;;3.10;99.90;;;;;;4963228;28;20516;-61
2022/12/26 09:28:55;;;;;;;30.67;19.05;;;3.10;99.90;;;;;;4954882;28;20039;-61
2022/12/26 09:31:24;;;;;;;27.80;19.17;;;3.10;99.90;;;;;;4975812;28;20138;-61
2022/12/26 09:33:54;;;;;;;35.15;18.17;;;3.10;99.90;;;;;;4964857;28;20404;-62
2022/12/26 09:36:23;;;;;;;;;;;3.10;99.90;;;;;;4963159;28;20504;-61
2022/12/26 09:38:51;;;;;;;40.80;22.33;;;3.10;99.90;;;;;;4957244;28;20759;-61
2022/12/26 09:41:23;;;;;;;37.03;20.50;;;3.10;99.90;;;;;;4962079;28;20074;-62
2022/12/26 09:44:03;;;;;;;31.15;20.13;;;3.10;99.90;;;;;;4963350;28;20089;-62
2022/12/26 09:46:38;;;;;;;33.90;20.73;;;3.10;99.90;;;;;;4957181;28;20053;-61
2022/12/26 09:49:31;;;;;;;36.00;21.80;;;3.10;99.90;;;;;;4962365;28;20559;-61
2022/12/26 09:52:01;;;;;;;33.25;19.88;;;3.10;99.90;;;;;;4957078;28;20137;-62
2022/12/26 09:54:38;;;;;;;31.13;21.57;;;3.10;99.90;;;;;;4961718;28;20141;-62
2022/12/26 09:57:15;;;;;;;27.33;19.08;;;3.10;99.90;;;;;;4958813;28;20296;-62
2022/12/26 09:59:55;;;;;;;31.00;20.23;;;3.10;99.90;;;;;;4960650;28;20070;-61
2022/12/26 10:02:24;;;;;;;35.60;21.52;;;3.10;99.90;;;;;;4964669;28;20593;-62
2022/12/26 10:04:52;;;;;;;35.13;19.20;;;3.10;99.90;;;;;;4958861;28;20595;-62
2022/12/26 10:07:41;;;;;;;31.13;20.42;;;3.10;99.90;;;;;;4960688;28;20591;-63
2022/12/26 10:10:12;;;;;;;39.42;21.52;;;3.10;99.90;;;;;;4964544;28;20105;-62
2022/12/26 10:13:01;;;;;;;32.65;20.83;;;3.10;99.90;;;;;;4961699;28;20499;-62
2022/12/26 10:15:52;;;;;;;30.67;19.85;;;3.10;99.90;;;;;;4965799;28;20082;-61
2022/12/26 10:18:38;;;;;;;31.98;20.42;;;3.10;99.90;;;;;;4960660;28;20047;-62
2022/12/26 10:21:41;;;;;;;37.17;23.58;;;3.10;99.90;;;;;;4957843;28;20050;-64
2022/12/26 10:24:15;;;;;;;40.35;22.20;;;3.10;99.90;;;;;;4959840;28;20058;-64
2022/12/26 10:26:58;;;;;;;34.28;22.13;;;3.10;99.90;;;;;;4959597;28;20046;-62
2022/12/26 10:29:37;;;;;;;39.78;22.83;;;3.10;99.90;;;;;;4956861;28;20047;-62
2022/12/26 10:32:18;;;;;;;32.60;22.17;;;3.10;99.90;;;;;;4963770;28;20047;-62
2022/12/26 10:34:53;;;;;;;33.60;20.65;;;3.10;99.90;;;;;;4958729;28;20047;-61
2022/12/26 10:37:26;;;;;;;33.78;20.95;;;3.10;99.90;;;;;;4957729;28;20055;-62
2022/12/26 10:40:04;;;;;;;27.65;20.00;;;3.10;99.90;;;;;;4962737;28;20054;-63
2022/12/26 10:42:40;;;;;;;37.08;22.58;;;3.10;99.90;;;;;;4963359;28;20043;-62
2022/12/26 10:45:20;;;;;;;28.73;19.27;;;3.10;99.90;;;;;;4959120;28;20162;-62
2022/12/26 10:47:50;;;;;;;31.20;21.05;;;3.00;99.90;;;;;;4962180;28;20049;-62
2022/12/26 10:50:26;;;;;;;40.97;20.73;;;3.00;99.90;;;;;;4954144;28;20051;-64
2022/12/26 10:52:55;;;;;;;31.00;18.45;;;3.00;99.90;;;;;;4961097;28;20145;-62
2022/12/26 10:55:31;;;;;;;33.88;20.00;;;3.10;99.90;;;;;;4957343;28;20047;-62
2022/12/26 10:58:13;;;;;;;29.60;20.27;;;3.10;99.90;;;;;;4957771;28;20051;-63
2022/12/26 11:00:40;;;;;;;26.25;19.23;;;3.10;99.90;;;;;;4957501;28;20055;-61
2022/12/26 11:03:13;;;;;;;28.85;19.15;;;3.10;99.90;;;;;;4961980;28;20123;-62
2022/12/26 11:05:52;;;;;;;37.97;20.30;;;3.00;99.90;;;;;;4955870;28;20481;-62
2022/12/26 11:08:48;;;;;;;30.27;17.52;;;3.10;99.90;;;;;;4958925;28;20051;-61
2022/12/26 11:11:44;;;;;;;25.38;16.30;;;3.00;99.90;;;;;;4957620;28;20055;-62
2022/12/26 11:14:35;;;;;;;26.35;17.45;;;3.10;99.90;;;;;;4962188;28;20488;-62
2022/12/26 11:17:22;;;;;;;29.17;18.58;;;3.00;99.90;;;;;;4961122;28;20205;-62
2022/12/26 11:20:13;;;;;;;27.10;20.23;;;3.00;99.90;;;;;;4958656;28;20094;-62
2022/12/26 11:22:40;;;;;;;;;;;3.00;99.90;;;;;;4956323;28;20054;-62
2022/12/26 11:25:19;;;;;;;25.20;16.98;;;3.00;99.90;;;;;;4958298;28;19926;-63
2022/12/26 11:27:54;;;;;;;22.92;16.83;;;3.00;99.90;;;;;;4958570;28;20475;-61
2022/12/26 11:30:26;;;;;;;31.05;18.90;;;3.00;99.90;;;;;;4957814;28;20054;-62
2022/12/26 11:33:08;;;;;;;24.88;17.63;;;3.00;99.90;;;;;;4951810;28;20189;-63
2022/12/26 11:36:08;;;;;;;23.40;17.00;;;3.10;99.90;;;;;;4960309;28;20136;-62
2022/12/26 11:38:54;;;;;;;26.90;17.55;;;3.00;99.90;;;;;;4958989;28;20146;-63
2022/12/26 11:41:31;;;;;;;25.27;18.48;;;3.00;99.90;;;;;;4954602;28;20049;-61
2022/12/26 11:44:10;;;;;;;27.75;18.40;;;3.00;99.90;;;;;;4957393;28;20061;-63
2022/12/26 11:47:04;;;;;;;22.77;16.65;;;3.00;99.90;;;;;;4960199;28;20051;-65
2022/12/26 11:49:38;;;;;;;26.90;18.95;;;3.00;99.90;;;;;;4958745;28;20116;-61
2022/12/26 11:52:36;;;;;;;28.25;19.25;;;3.00;99.90;;;;;;4962890;28;20158;-61
2022/12/26 11:55:32;;;;;;;29.15;18.10;;;3.00;99.90;;;;;;4954394;28;20066;-62
2022/12/26 11:58:09;;;;;;;24.00;16.45;;;3.00;99.90;;;;;;4955748;28;20070;-62
2022/12/26 12:00:39;;;;;;;25.80;16.58;;;3.00;99.90;;;;;;4959822;28;20800;-62
2022/12/26 12:03:33;;;;;;;29.75;18.25;;;3.00;99.90;;;;;;4956702;28;20054;-61
2022/12/26 12:06:21;;;;;;;28.88;16.88;;;3.00;99.90;;;;;;4960094;28;20489;-64
2022/12/26 12:08:59;;;;;;;30.42;18.20;;;3.00;99.90;;;;;;4955242;28;20046;-62
2022/12/26 12:11:49;;;;;;;37.67;19.80;;;3.00;99.90;;;;;;4960784;28;20046;-61
2022/12/26 12:14:29;;;;;;;24.85;17.33;;;3.00;99.90;;;;;;4960983;28;20054;-62
2022/12/26 12:17:38;;;;;;;29.10;17.65;;;3.00;99.90;;;;;;4957567;28;20066;-62
2022/12/26 12:20:28;;;;;;;27.17;17.85;;;3.00;99.90;;;;;;4957148;28;20142;-61
2022/12/26 12:23:33;;;;;;;24.00;17.17;;;3.00;99.90;;;;;;4959711;28;20106;-64
2022/12/26 12:26:09;;;;;;;30.13;18.30;;;3.00;99.90;;;;;;4959409;28;20051;-63
2022/12/26 12:29:00;;;;;;;29.60;17.55;;;3.00;99.90;;;;;;4959909;28;20065;-62
2022/12/26 12:31:57;;;;;;;26.42;16.50;;;3.00;99.90;;;;;;4963892;28;20137;-64
2022/12/26 12:34:30;;;;;;;29.20;17.48;;;3.00;99.90;;;;;;4962225;28;20047;-63
2022/12/26 12:37:00;;;;;;;24.13;17.50;;;3.00;99.90;;;;;;4963047;28;20153;-67
2022/12/26 12:39:39;;;;;;;28.00;17.00;;;3.00;99.90;;;;;;4964637;28;20125;-62
2022/12/26 12:42:54;;;;;;;27.73;18.10;;;3.00;99.90;;;;;;4960502;28;20109;-62
2022/12/26 12:45:43;;;;;;;28.00;15.88;;;3.00;99.90;;;;;;4962009;28;20045;-61
2022/12/26 12:48:48;;;;;;;26.23;17.88;;;3.00;99.90;;;;;;4961883;28;20043;-62
2022/12/26 12:51:26;;;;;;;26.63;17.02;;;3.00;99.90;;;;;;4957061;28;20173;-62
2022/12/26 12:54:18;;;;;;;25.90;15.45;;;3.00;99.90;;;;;;4964241;28;20169;-61
2022/12/26 12:56:51;;;;;;;27.60;17.30;;;3.00;99.90;;;;;;4956264;28;20082;-63
2022/12/26 12:59:49;;;;;;;23.77;15.65;;;3.00;99.90;;;;;;4964589;28;20125;-61
2022/12/26 13:02:27;;;;;;;28.70;14.95;;;3.00;99.90;;;;;;4962486;28;20057;-62
2022/12/26 13:05:03;;;;;;;23.23;15.23;;;3.00;99.90;;;;;;4960621;28;20070;-63
2022/12/26 13:07:36;;;;;;;35.17;17.20;;;3.00;99.90;;;;;;4964475;28;20142;-62
2022/12/26 13:10:57;;;;;;;23.27;14.88;;;3.00;99.90;;;;;;4962784;28;20050;-61
2022/12/26 13:13:40;;;;;;;22.58;14.98;;;3.00;99.90;;;;;;4941079;28;20047;-64
2022/12/26 13:16:21;;;;;;;23.67;14.15;;;3.00;99.90;;;;;;4961656;28;20055;-62
2022/12/26 13:18:52;;;;;;;20.92;13.55;;;3.00;99.90;;;;;;4962661;28;20520;-63
2022/12/26 13:21:20;;;;;;;25.25;14.18;;;3.00;99.90;;;;;;4963488;28;20460;-62
2022/12/26 13:24:25;;;;;;;20.58;12.15;;;3.00;99.90;;;;;;4958710;28;20047;-64
2022/12/26 13:26:57;;;;;;;20.45;13.30;;;2.90;99.90;;;;;;4960976;28;20043;-62
2022/12/26 13:29:30;;;;;;;19.92;11.93;;;2.90;99.90;;;;;;4958788;28;20126;-61
2022/12/26 13:31:59;;;;;;;19.55;10.70;;;2.90;99.90;;;;;;4960617;28;20509;-64
2022/12/26 13:34:26;;;;;;;15.90;11.25;;;2.90;99.90;;;;;;4961701;28;20047;-64
2022/12/26 13:36:55;;;;;;;19.30;12.55;;;2.80;99.90;;;;;;4960991;28;20413;-63
2022/12/26 13:39:22;;;;;;;16.88;11.20;;;2.80;99.90;;;;;;4962338;28;20051;-64
2022/12/26 13:44:52;;;;;;;16.38;10.10;;;2.80;99.90;;;;;;4958157;28;20051;-63
2022/12/26 13:47:35;;;;;;;18.15;11.13;;;2.80;99.90;;;;;;4962058;28;20358;-62
2022/12/26 13:50:46;;;;;;;19.48;11.35;;;2.70;99.90;;;;;;4961295;28;20055;-62
2022/12/26 13:53:23;;;;;;;14.68;11.30;;;2.70;99.90;;;;;;4953418;28;20755;-62
2022/12/26 13:55:50;;;;;;;15.20;10.27;;;2.70;99.90;;;;;;4961622;28;20043;-63
2022/12/26 13:58:57;;;;;;;15.07;9.80;;;2.70;99.90;;;;;;4957565;28;20806;-62
2022/12/26 14:01:59;;;;;;;16.92;11.90;;;2.70;99.90;;;;;;4954119;28;20160;-62
2022/12/26 14:04:38;;;;;;;16.60;10.68;;;2.60;99.90;;;;;;4929974;28;20057;-63
2022/12/26 14:07:33;;;;;;;18.70;10.48;;;2.60;99.90;;;;;;4960399;28;20142;-64
2022/12/26 14:10:05;;;;;;;19.48;9.02;;;2.50;99.90;;;;;;4963468;28;20105;-64
2022/12/26 14:12:51;;;;;;;17.35;9.05;;;2.50;99.90;;;;;;4959247;28;20043;-64
2022/12/26 14:15:30;;;;;;;11.85;8.10;;;2.60;99.90;;;;;;4956656;28;20046;-63
2022/12/26 14:18:17;;;;;;;12.07;7.70;;;2.50;99.90;;;;;;4961660;28;20150;-64
2022/12/26 14:21:14;;;;;;;10.43;7.05;;;2.50;99.90;;;;;;4953500;28;20062;-64
2022/12/26 14:24:05;;;;;;;9.57;6.43;;;2.50;99.90;;;;;;4965398;28;20493;-63
2022/12/26 14:26:50;;;;;;;8.15;5.72;;;2.50;99.90;;;;;;4963270;28;20439;-62
2022/12/26 14:29:23;;;;;;;9.23;6.65;;;2.40;99.90;;;;;;4959143;28;20058;-61
2022/12/26 14:31:59;;;;;;;12.93;6.22;;;2.40;99.90;;;;;;4961739;28;20051;-62
2022/12/26 14:34:47;;;;;;;9.48;5.95;;;2.40;99.90;;;;;;4955510;28;20058;-62
2022/12/26 14:37:39;;;;;;;10.40;5.50;;;2.30;99.90;;;;;;4959970;28;20055;-62
2022/12/26 14:40:24;;;;;;;7.22;5.28;;;2.30;99.90;;;;;;4961524;28;20826;-62
2022/12/26 14:43:23;;;;;;;8.57;5.07;;;2.20;99.90;;;;;;4966375;28;20078;-62
2022/12/26 14:45:51;;;;;;;9.35;5.30;;;2.10;99.90;;;;;;4959361;28;20082;-62
2022/12/26 14:48:18;;;;;;;8.43;5.22;;;2.10;99.90;;;;;;4961354;28;20055;-64
2022/12/26 14:51:17;;;;;;;7.45;4.93;;;2.00;99.90;;;;;;4960216;28;20145;-62
2022/12/26 14:54:05;;;;;;;7.68;4.80;;;2.00;99.90;;;;;;4959321;28;20158;-65
2022/12/26 14:56:36;;;;;;;8.15;5.97;;;2.00;99.90;;;;;;4958049;28;20442;-63
2022/12/26 14:59:26;;;;;;;7.75;6.15;;;1.90;99.90;;;;;;4963235;28;20132;-62
2022/12/26 15:02:28;;;;;;;7.15;5.45;;;1.90;99.90;;;;;;4964127;28;20055;-62
2022/12/26 15:05:25;;;;;;;7.85;5.53;;;1.90;99.90;;;;;;4959794;28;20050;-64
2022/12/26 15:08:06;;;;;;;10.18;6.63;;;2.00;99.90;;;;;;4958704;28;20059;-64
2022/12/26 15:11:03;;;;;;;9.60;6.38;;;2.00;99.90;;;;;;4953187;28;20429;-62
2022/12/26 15:13:42;;;;;;;9.02;6.25;;;1.90;99.90;;;;;;4959695;28;20058;-61
2022/12/26 15:16:29;;;;;;;10.35;7.13;;;2.00;99.90;;;;;;4960794;28;20043;-63
2022/12/26 15:19:19;;;;;;;11.23;7.32;;;2.00;99.90;;;;;;4961571;28;20061;-62
2022/12/26 15:22:05;;;;;;;11.52;6.90;;;2.00;99.90;;;;;;4958198;28;20489;-62